TFM - Tactical Decision Aid
ID: Runway Winds: CIG/VIS Threshold:

KIAH - Houston/Bush Intl, TX, US

Updated at: 2212 UTC 23 Apr 2019
Latest TAF at: 2059 UTC 23 Apr 2019

TAF Board

Time2153Z 23/23Z 24/00Z 24/01Z 24/02Z 24/03Z 24/04Z 24/05Z 24/06Z 24/07Z 24/08Z 24/09Z 24/10Z 24/11Z>>
Type OBS PRVL PRVL PRVL PRVL PRVL PRVL PRVL PRVL PRVL PRVL PRVL PRVL PRVL
VIS 10 >6 >6 >6 >6 >6 >6 >6 >6 >6 >6 >6 >6 >6
CIG 43 40 40 40 30 30 30 30 30 15 15 15 15 15
Cover OVC OVC OVC OVC BKN BKN BKN BKN BKN OVC OVC OVC OVC OVC
FltCat VFR VFR VFR VFR MVFR MVFR MVFR MVFR MVFR MVFR MVFR MVFR MVFR MVFR
WX -- -- -- -- -- -- -- -- -- -- -- -- -- --
WDir 150 170 170 170 140 140 140 140 140 140 140 140 140 140
WSpd 14 8 8 8 7 7 7 7 7 7 7 7 7 7
WGst -- -- -- -- -- -- -- -- -- -- -- -- -- --

TDA Impact Legend

  None Marginal Slight Moderate High
Visibility (sm) >5 3≤X≤5 1≤X<3 0.5≤X<1 <0.5
Ceiling (100 ft) >30 10≤X≤30 4≤X<10 2≤X<4 <2
Wind Speed (kt) <15 15≤X<25 25≤X<30 ≥30
Wind Gust (kt) <15 15≤X<25 25≤X<35 ≥35
Weather No Wx Reported VCTS -TS,-FZRA TS,FZRA +TS,+FZRA
TAF
KIAH 232059Z 2321/2424 17008KT P6SM SCT025 BKN040 OVC250
  FM240200 14007KT P6SM SCT020 BKN030
  FM240700 14007KT P6SM OVC015
  FM241200 09005KT P6SM OVC009
  FM241500 12011KT P6SM VCSH SCT010 BKN020 OVC150
  FM242100 14013KT P6SM VCSH SCT025 OVC150


METAR
KIAH 232153Z 15014KT 10SM FEW026 BKN043 BKN160 OVC250 23/20 A2999 RMK AO2 RAB02E11 SLP154 P0000 T02330200
KIAH 232053Z 17008KT 10SM SCT023 BKN040 BKN150 OVC250 24/19 A2999 RMK AO2 SLP155 T02440194 58008
KIAH 231953Z 16006KT 10SM SCT020 BKN045 BKN150 OVC250 25/20 A3001 RMK AO2 SLP163 T02500200
KIAH 231853Z 16012KT 10SM BKN015 BKN140 OVC200 24/21 A3001 RMK AO2 SLP161 T02440206

Radar Display
Forecast Discussion